KAXV/AXV METAR and TAF weather

Enter ICAO airport designator
Station Type Date Time Source
KAXV METAR 2019/05/19 20:15 UTC NOAA

KAXV 192015Z AUTO 25007KT 7SM RA SCT036 BKN043 OVC049 16/15 A2983 RMK AO2


Station Type Date Time Source
KAXV Decoded METAR 2019/05/19 20:15 UTC NOAA

Station name not available
May 19, 2019 - 04:15 PM EDT / 2019.05.19 2015 UTC
Wind: from the WSW (250 degrees) at 8 MPH (7 KT):0
Visibility: 7 mile(s):0
Sky conditions: overcast
Weather: rain
Temperature: 60 F (16 C)
Dew Point: 59 F (15 C)
Relative Humidity: 93%
Pressure (altimeter): 29.83 in. Hg (1010 hPa)
ob: KAXV 192015Z AUTO 25007KT 7SM RA SCT036 BKN043 OVC049 16/15 A2983 RMK AO2
cycle: 20

Station Type Date Time Source
KAXV TAF UTC NOAA

Error!

Example: see airport list